createdAt,value
2022-12-31T00:01:46.570Z,2.10
2022-12-31T00:04:13.373Z,4.43
2022-12-31T00:06:40.235Z,2.10
2022-12-31T00:09:08.973Z,3.40
2022-12-31T00:11:36.508Z,4.97
2022-12-31T00:14:03.590Z,4.27
2022-12-31T00:16:34.193Z,3.03
2022-12-31T00:19:01.218Z,2.63
2022-12-31T00:21:32.670Z,3.03
2022-12-31T00:23:59.572Z,1.70
2022-12-31T00:26:30.011Z,1.70
2022-12-31T00:28:59.092Z,0.90
2022-12-31T00:31:30.276Z,1.00
2022-12-31T00:33:58.342Z,1.30
2022-12-31T00:36:29.453Z,1.10
2022-12-31T00:38:57.832Z,2.03
2022-12-31T00:41:25.905Z,1.40
2022-12-31T00:43:53.204Z,1.13
2022-12-31T00:46:20.107Z,1.50
2022-12-31T00:48:47.098Z,1.03
2022-12-31T00:51:16.682Z,1.23
2022-12-31T00:53:44.122Z,1.97
2022-12-31T00:56:13.915Z,1.77
2022-12-31T00:58:41.749Z,1.00
2022-12-31T01:01:30.728Z,2.10
2022-12-31T01:04:14.550Z,4.20
2022-12-31T01:06:42.495Z,0.93
2022-12-31T01:09:11.119Z,0.70
2022-12-31T01:11:37.919Z,2.00
2022-12-31T01:14:10.717Z,2.00
2022-12-31T01:16:42.845Z,0.70
2022-12-31T01:19:12.587Z,1.17
2022-12-31T01:21:41.407Z,0.67
2022-12-31T01:24:10.428Z,0.70
2022-12-31T01:26:37.947Z,0.80
2022-12-31T01:29:06.543Z,0.70
2022-12-31T01:31:34.386Z,0.90
2022-12-31T01:34:01.612Z,1.23
2022-12-31T01:36:31.789Z,1.30
2022-12-31T01:39:00.634Z,0.73
2022-12-31T01:41:35.335Z,0.70
2022-12-31T01:44:14.139Z,0.90
2022-12-31T01:46:51.611Z,0.80
2022-12-31T01:49:36.571Z,0.77
2022-12-31T01:52:22.487Z,0.70
2022-12-31T01:54:55.570Z,1.00
2022-12-31T01:57:25.321Z,0.80
2022-12-31T01:59:54.059Z,0.80
2022-12-31T02:02:20.893Z,0.70
2022-12-31T02:04:50.698Z,0.70
2022-12-31T02:07:17.570Z,2.90
2022-12-31T02:09:44.483Z,0.70
2022-12-31T02:12:11.554Z,0.80
2022-12-31T02:14:42.724Z,0.70
2022-12-31T02:17:22.596Z,0.70
2022-12-31T02:20:21.359Z,0.70
2022-12-31T02:23:22.088Z,0.80
2022-12-31T02:26:26.463Z,0.67
2022-12-31T02:29:21.039Z,0.90
2022-12-31T02:31:57.797Z,0.80
2022-12-31T02:34:57.475Z,0.80
2022-12-31T02:37:27.293Z,0.70
2022-12-31T02:39:54.480Z,0.70
2022-12-31T02:42:21.209Z,0.80
2022-12-31T02:44:47.934Z,1.83
2022-12-31T02:47:26.031Z,1.50
2022-12-31T02:50:06.396Z,0.80
2022-12-31T02:53:00.633Z,0.80
2022-12-31T02:55:42.154Z,0.97
2022-12-31T02:58:15.232Z,1.43
2022-12-31T03:01:07.891Z,1.60
2022-12-31T03:03:36.415Z,0.80
2022-12-31T03:06:04.429Z,0.90
2022-12-31T03:08:31.376Z,0.80
2022-12-31T03:10:58.083Z,1.83
2022-12-31T03:13:25.075Z,0.80
2022-12-31T03:15:51.977Z,1.17
2022-12-31T03:18:39.465Z,1.00
2022-12-31T03:21:45.072Z,0.90
2022-12-31T03:24:30.496Z,0.90
2022-12-31T03:26:57.220Z,0.80
2022-12-31T03:29:23.987Z,0.70
2022-12-31T03:31:50.781Z,1.17
2022-12-31T03:34:17.675Z,1.00
2022-12-31T03:36:44.605Z,0.70
2022-12-31T03:39:11.324Z,0.70
2022-12-31T03:41:38.417Z,1.20
2022-12-31T03:44:05.487Z,0.70
2022-12-31T03:46:32.276Z,0.77
2022-12-31T03:48:59.050Z,0.73
2022-12-31T03:51:25.872Z,0.70
2022-12-31T03:53:52.528Z,0.80
2022-12-31T03:56:19.586Z,1.23
2022-12-31T03:58:46.240Z,0.70
2022-12-31T04:01:13.215Z,2.53
2022-12-31T04:03:39.978Z,1.10
2022-12-31T04:06:06.824Z,0.67
2022-12-31T04:08:33.606Z,0.70
2022-12-31T04:11:00.299Z,0.70
2022-12-31T04:13:27.082Z,1.10
2022-12-31T04:15:53.917Z,1.47
2022-12-31T04:18:20.765Z,0.90
2022-12-31T04:20:47.541Z,1.47
2022-12-31T04:23:14.209Z,0.90
2022-12-31T04:25:40.891Z,0.87
2022-12-31T04:28:07.645Z,0.80
2022-12-31T04:30:34.405Z,1.10
2022-12-31T04:33:01.148Z,4.50
2022-12-31T04:35:27.857Z,1.43
2022-12-31T04:37:54.555Z,1.37
2022-12-31T04:40:21.281Z,0.80
2022-12-31T04:42:47.981Z,0.90
2022-12-31T04:45:14.786Z,1.00
2022-12-31T04:47:41.520Z,0.80
2022-12-31T04:50:08.390Z,1.00
2022-12-31T04:52:42.117Z,0.90
2022-12-31T04:55:10.005Z,1.30
2022-12-31T04:57:36.784Z,1.10
2022-12-31T05:00:04.003Z,1.00
2022-12-31T05:02:31.133Z,0.80
2022-12-31T05:04:58.342Z,0.77
2022-12-31T05:07:25.329Z,0.90
2022-12-31T05:09:52.072Z,1.53
2022-12-31T05:12:19.067Z,1.00
2022-12-31T05:14:45.879Z,0.90
2022-12-31T05:17:12.695Z,1.40
2022-12-31T05:19:39.419Z,0.83
2022-12-31T05:22:24.845Z,1.90
2022-12-31T05:24:52.363Z,0.90
2022-12-31T05:27:19.041Z,1.20
2022-12-31T05:29:45.723Z,1.87
2022-12-31T05:32:12.497Z,2.20
2022-12-31T05:34:39.231Z,1.40
2022-12-31T05:37:05.925Z,1.20
2022-12-31T05:39:32.659Z,1.70
2022-12-31T05:41:59.363Z,1.10
2022-12-31T05:44:26.085Z,1.30
2022-12-31T05:46:52.844Z,1.20
2022-12-31T05:49:19.580Z,1.30
2022-12-31T05:51:46.403Z,1.30
2022-12-31T05:54:13.130Z,1.27
2022-12-31T05:56:39.842Z,1.67
2022-12-31T05:59:06.549Z,1.57
2022-12-31T06:01:33.312Z,4.20
2022-12-31T06:04:00.718Z,1.30
2022-12-31T06:06:27.691Z,1.10
2022-12-31T06:08:54.433Z,1.97
2022-12-31T06:11:21.325Z,1.20
2022-12-31T06:13:48.079Z,1.10
2022-12-31T06:16:14.890Z,1.60
2022-12-31T06:18:41.767Z,1.00
2022-12-31T06:21:08.849Z,1.90
2022-12-31T06:23:35.549Z,1.10
2022-12-31T06:26:05.903Z,1.10
2022-12-31T06:28:33.021Z,1.40
2022-12-31T06:31:08.501Z,1.70
2022-12-31T06:33:35.484Z,1.30
2022-12-31T06:36:04.561Z,2.17
2022-12-31T06:38:33.396Z,1.67
2022-12-31T06:41:04.664Z,1.30
2022-12-31T06:43:31.504Z,1.50
2022-12-31T06:46:05.048Z,2.20
2022-12-31T06:48:32.360Z,1.20
2022-12-31T06:51:09.566Z,2.30
2022-12-31T06:53:40.549Z,1.20
2022-12-31T06:56:33.825Z,0.90
2022-12-31T06:59:02.334Z,1.50
2022-12-31T07:01:49.295Z,3.70
2022-12-31T07:04:27.793Z,1.97
2022-12-31T07:07:21.132Z,1.63
2022-12-31T07:10:21.552Z,1.77
2022-12-31T07:13:05.506Z,3.70
2022-12-31T07:15:50.835Z,1.60
2022-12-31T07:18:36.742Z,2.07
2022-12-31T07:21:04.050Z,1.87
2022-12-31T07:23:31.011Z,1.47
2022-12-31T07:26:09.695Z,1.80
2022-12-31T07:28:42.350Z,0.90
2022-12-31T07:31:32.838Z,3.13
2022-12-31T07:34:30.748Z,2.13
2022-12-31T07:37:38.936Z,1.33
2022-12-31T07:40:46.788Z,1.50
2022-12-31T07:43:34.727Z,1.70
2022-12-31T07:46:07.487Z,2.87
2022-12-31T07:48:34.461Z,1.00
2022-12-31T07:51:01.515Z,1.30
2022-12-31T07:53:28.571Z,1.20
2022-12-31T07:55:59.709Z,2.33
2022-12-31T07:58:39.027Z,1.60
2022-12-31T08:01:14.397Z,1.00
2022-12-31T08:03:47.784Z,2.60
2022-12-31T08:06:19.517Z,2.37
2022-12-31T08:09:24.767Z,1.47
2022-12-31T08:12:01.119Z,1.00
2022-12-31T08:14:29.409Z,2.00
2022-12-31T08:16:57.499Z,1.83
2022-12-31T08:19:33.470Z,1.77
2022-12-31T08:22:16.144Z,1.67
2022-12-31T08:25:08.225Z,1.77
2022-12-31T08:27:56.523Z,2.60
2022-12-31T08:30:25.417Z,1.37
2022-12-31T08:33:23.839Z,0.90
2022-12-31T08:36:03.441Z,1.97
2022-12-31T08:38:44.527Z,2.00
2022-12-31T08:41:30.904Z,3.43
2022-12-31T08:44:09.625Z,2.70
2022-12-31T08:47:03.237Z,2.60
2022-12-31T08:49:34.005Z,2.90
2022-12-31T08:52:02.414Z,1.70
2022-12-31T08:54:29.510Z,2.50
2022-12-31T08:57:24.299Z,2.17
2022-12-31T09:00:03.415Z,2.13
2022-12-31T09:02:52.158Z,2.50
2022-12-31T09:05:53.136Z,1.83
2022-12-31T09:08:32.647Z,2.47
2022-12-31T09:11:45.910Z,2.10
2022-12-31T09:14:40.734Z,2.10
2022-12-31T09:17:19.331Z,1.53
2022-12-31T09:19:46.215Z,3.23
2022-12-31T09:22:13.126Z,1.67
2022-12-31T09:24:40.144Z,2.83
2022-12-31T09:27:27.759Z,2.13
2022-12-31T09:30:04.749Z,1.40
2022-12-31T09:32:46.506Z,1.47
2022-12-31T09:35:13.296Z,1.73
2022-12-31T09:37:47.584Z,1.40
2022-12-31T09:40:53.675Z,1.73
2022-12-31T09:43:38.901Z,1.23
2022-12-31T09:46:24.548Z,2.80
2022-12-31T09:49:06.359Z,3.43
2022-12-31T09:51:38.944Z,3.17
2022-12-31T09:54:27.427Z,2.57
2022-12-31T09:57:19.134Z,1.50
2022-12-31T10:00:17.509Z,3.93
2022-12-31T10:02:45.159Z,1.20
2022-12-31T10:05:49.227Z,2.53
2022-12-31T10:08:29.849Z,2.10
2022-12-31T10:11:02.985Z,5.07
2022-12-31T10:13:39.347Z,1.70
2022-12-31T10:16:14.677Z,2.43
2022-12-31T10:19:06.307Z,2.63
2022-12-31T10:21:48.632Z,1.40
2022-12-31T10:24:34.460Z,1.67
2022-12-31T10:27:38.995Z,2.50
2022-12-31T10:30:21.312Z,4.10
2022-12-31T10:33:08.736Z,3.47
2022-12-31T10:36:25.961Z,1.67
2022-12-31T10:39:14.497Z,1.77
2022-12-31T10:41:50.241Z,3.17
2022-12-31T10:44:54.317Z,2.23
2022-12-31T10:47:38.310Z,1.83
2022-12-31T10:50:38.884Z,2.53
2022-12-31T10:53:37.251Z,3.63
2022-12-31T10:56:41.641Z,1.50
2022-12-31T10:59:27.228Z,2.80
2022-12-31T11:02:12.719Z,2.00
2022-12-31T11:05:10.383Z,1.17
2022-12-31T11:07:42.660Z,2.73
2022-12-31T11:10:31.111Z,4.93
2022-12-31T11:13:56.475Z,1.50
2022-12-31T11:16:33.752Z,2.00
2022-12-31T11:19:06.488Z,2.20
2022-12-31T11:21:46.818Z,2.97
2022-12-31T11:24:44.159Z,2.33
2022-12-31T11:27:25.934Z,1.80
2022-12-31T11:30:18.798Z,2.20
2022-12-31T11:33:11.156Z,1.40
2022-12-31T11:36:19.746Z,2.00
2022-12-31T11:39:13.075Z,3.87
2022-12-31T11:41:49.546Z,3.30
2022-12-31T11:44:51.899Z,2.60
2022-12-31T11:48:28.656Z,2.67
2022-12-31T11:50:50.022Z,2.40
2022-12-31T11:53:31.712Z,2.77
2022-12-31T11:56:09.921Z,3.13
2022-12-31T11:58:36.745Z,1.73
2022-12-31T12:01:20.705Z,3.40
2022-12-31T12:03:47.926Z,2.07
2022-12-31T12:06:18.226Z,1.70
2022-12-31T12:08:46.641Z,2.60
2022-12-31T12:11:27.330Z,6.40
2022-12-31T12:13:54.136Z,4.23
2022-12-31T12:16:23.809Z,2.80
2022-12-31T12:19:05.809Z,3.80
2022-12-31T12:21:33.474Z,5.27
2022-12-31T12:24:06.021Z,2.10
2022-12-31T12:26:37.643Z,2.60
2022-12-31T12:29:18.054Z,3.00
2022-12-31T12:31:59.556Z,2.97
2022-12-31T12:34:44.448Z,2.90
2022-12-31T12:37:27.981Z,2.30
2022-12-31T12:40:05.656Z,1.40
2022-12-31T12:42:33.059Z,4.87
2022-12-31T12:45:07.154Z,3.57
2022-12-31T12:47:34.820Z,1.17
2022-12-31T12:50:01.980Z,3.40
2022-12-31T12:52:47.779Z,1.90
2022-12-31T12:55:27.628Z,1.87
2022-12-31T12:57:57.499Z,4.17
2022-12-31T13:00:49.943Z,2.10
2022-12-31T13:03:34.735Z,2.43
2022-12-31T13:06:20.020Z,1.70
2022-12-31T13:09:31.399Z,2.27
2022-12-31T13:12:07.739Z,2.60
2022-12-31T13:15:02.747Z,2.93
2022-12-31T13:17:56.138Z,2.37
2022-12-31T13:20:32.986Z,1.80
2022-12-31T13:23:18.407Z,2.43
2022-12-31T13:26:14.188Z,2.13
2022-12-31T13:28:43.405Z,2.10
2022-12-31T13:31:15.159Z,3.03
2022-12-31T13:33:49.622Z,2.83
2022-12-31T13:36:23.358Z,3.20
2022-12-31T13:38:54.047Z,2.70
2022-12-31T13:41:41.732Z,2.67
2022-12-31T13:44:34.954Z,1.30
2022-12-31T13:47:54.554Z,3.40
2022-12-31T13:50:32.712Z,4.83
2022-12-31T13:53:33.006Z,2.20
2022-12-31T13:56:05.953Z,3.30
2022-12-31T13:58:42.070Z,4.80
2022-12-31T14:01:25.394Z,2.30
2022-12-31T14:04:14.561Z,2.90
2022-12-31T14:07:32.542Z,1.97
2022-12-31T14:10:02.229Z,4.10
2022-12-31T14:12:55.360Z,3.30
2022-12-31T14:15:37.422Z,5.80
2022-12-31T14:18:19.442Z,3.17
2022-12-31T14:20:56.799Z,3.37
2022-12-31T14:23:49.711Z,1.93
2022-12-31T14:26:41.880Z,4.60
2022-12-31T14:29:11.352Z,2.90
2022-12-31T14:31:51.692Z,2.30
2022-12-31T14:34:55.757Z,1.73
2022-12-31T14:37:22.427Z,3.20
2022-12-31T14:40:02.647Z,3.43
2022-12-31T14:42:51.590Z,3.73
2022-12-31T14:45:51.790Z,2.20
2022-12-31T14:48:44.434Z,2.37
2022-12-31T14:51:12.453Z,7.20
2022-12-31T14:53:39.247Z,2.90
2022-12-31T14:56:25.349Z,2.43
2022-12-31T14:59:01.483Z,1.60
2022-12-31T15:01:29.230Z,2.60
2022-12-31T15:03:58.173Z,1.90
2022-12-31T15:06:27.734Z,1.87
2022-12-31T15:09:18.563Z,2.90
2022-12-31T15:12:10.581Z,3.13
2022-12-31T15:14:58.818Z,2.53
2022-12-31T15:17:41.113Z,3.43
2022-12-31T15:20:23.155Z,2.30
2022-12-31T15:22:51.828Z,2.83
2022-12-31T15:25:35.210Z,2.00
2022-12-31T15:28:08.580Z,3.20
2022-12-31T15:30:35.413Z,2.10
2022-12-31T15:33:05.943Z,2.10
2022-12-31T15:35:49.220Z,1.53
2022-12-31T15:38:15.874Z,2.63
2022-12-31T15:40:50.701Z,2.50
2022-12-31T15:43:43.881Z,2.70
2022-12-31T15:46:20.122Z,3.60
2022-12-31T15:48:53.873Z,6.40
2022-12-31T15:51:28.779Z,3.13
2022-12-31T15:53:58.222Z,1.50
2022-12-31T15:56:49.137Z,4.83
2022-12-31T15:59:27.781Z,2.10
2022-12-31T16:01:57.722Z,2.60
2022-12-31T16:04:33.493Z,1.60
2022-12-31T16:07:03.934Z,2.30
2022-12-31T16:09:34.213Z,3.73
2022-12-31T16:12:03.715Z,2.50
2022-12-31T16:14:39.375Z,1.80
2022-12-31T16:17:07.020Z,4.87
2022-12-31T16:19:43.734Z,2.83
2022-12-31T16:22:26.905Z,4.70
2022-12-31T16:25:29.539Z,2.77
2022-12-31T16:27:49.777Z,2.93
2022-12-31T16:30:21.479Z,1.57
2022-12-31T16:32:50.601Z,1.90
2022-12-31T16:35:32.908Z,3.97
2022-12-31T16:38:12.181Z,1.90
2022-12-31T16:40:40.493Z,2.67
2022-12-31T16:43:31.155Z,2.57
2022-12-31T16:46:08.554Z,2.50
2022-12-31T16:48:35.439Z,2.63
2022-12-31T16:51:03.140Z,2.20
2022-12-31T16:53:34.161Z,2.93
2022-12-31T16:56:05.335Z,2.00
2022-12-31T16:58:36.861Z,2.70
2022-12-31T17:01:27.645Z,2.10
2022-12-31T17:04:02.275Z,2.07
2022-12-31T17:06:32.197Z,3.67
2022-12-31T17:09:09.957Z,5.50
2022-12-31T17:11:43.883Z,3.10
2022-12-31T17:14:13.853Z,4.17
2022-12-31T17:17:07.880Z,3.77
2022-12-31T17:19:51.803Z,5.43
2022-12-31T17:22:36.911Z,2.23
2022-12-31T17:25:21.895Z,3.40
2022-12-31T17:28:02.228Z,2.20
2022-12-31T17:30:35.086Z,2.80
2022-12-31T17:33:09.198Z,2.97
2022-12-31T17:35:42.207Z,2.03
2022-12-31T17:38:20.928Z,3.50
2022-12-31T17:41:05.383Z,2.80
2022-12-31T17:43:35.506Z,1.70
2022-12-31T17:46:08.971Z,3.57
2022-12-31T17:48:36.939Z,2.90
2022-12-31T17:51:03.826Z,4.40
2022-12-31T17:53:30.554Z,4.23
2022-12-31T17:56:02.481Z,2.50
2022-12-31T17:58:31.954Z,2.53
2022-12-31T18:00:59.745Z,2.90
2022-12-31T18:03:26.625Z,3.40
2022-12-31T18:05:53.409Z,3.20
2022-12-31T18:08:20.081Z,3.90
2022-12-31T18:10:47.024Z,3.90
2022-12-31T18:13:17.856Z,4.73
2022-12-31T18:15:44.875Z,3.00
2022-12-31T18:18:25.567Z,2.10
2022-12-31T18:21:17.978Z,3.20
2022-12-31T18:23:47.964Z,6.13
2022-12-31T18:26:17.586Z,2.10
2022-12-31T18:28:44.598Z,5.00
2022-12-31T18:31:22.142Z,5.33
2022-12-31T18:33:50.868Z,3.50
2022-12-31T18:36:19.101Z,8.20
2022-12-31T18:38:45.964Z,4.50
2022-12-31T18:41:20.337Z,3.03
2022-12-31T18:43:47.961Z,3.10
2022-12-31T18:46:17.093Z,5.47
2022-12-31T18:48:44.424Z,2.10
2022-12-31T18:51:29.313Z,4.70
2022-12-31T18:53:59.215Z,3.40
2022-12-31T18:56:25.993Z,5.30
2022-12-31T18:58:52.757Z,3.37
2022-12-31T19:01:33.114Z,2.30
2022-12-31T19:04:10.589Z,2.80
2022-12-31T19:06:37.455Z,6.17
2022-12-31T19:09:13.174Z,2.50
2022-12-31T19:11:51.263Z,4.57
2022-12-31T19:14:24.211Z,7.00
2022-12-31T19:16:53.392Z,2.73
2022-12-31T19:19:20.953Z,3.90
2022-12-31T19:21:47.812Z,3.13
2022-12-31T19:24:23.648Z,3.90
2022-12-31T19:26:50.691Z,6.60
2022-12-31T19:29:22.325Z,2.30
2022-12-31T19:31:49.450Z,6.47
2022-12-31T19:34:16.429Z,6.03
2022-12-31T19:36:44.402Z,5.70
2022-12-31T19:39:19.598Z,6.30
2022-12-31T19:41:51.430Z,4.90
2022-12-31T19:44:21.420Z,4.60
2022-12-31T19:46:49.234Z,4.27
2022-12-31T19:49:16.316Z,5.07
2022-12-31T19:51:43.210Z,4.53
2022-12-31T19:54:12.505Z,5.10
2022-12-31T19:56:39.467Z,3.50
2022-12-31T19:59:07.655Z,2.70
2022-12-31T20:01:34.524Z,7.10
2022-12-31T20:04:01.362Z,4.50
2022-12-31T20:06:28.125Z,5.43
2022-12-31T20:08:54.860Z,4.07
2022-12-31T20:11:23.275Z,4.80
2022-12-31T20:13:52.559Z,4.07
2022-12-31T20:16:22.760Z,2.80
2022-12-31T20:18:50.569Z,3.20
2022-12-31T20:21:23.019Z,4.17
2022-12-31T20:23:51.599Z,3.73
2022-12-31T20:26:19.686Z,6.87
2022-12-31T20:28:46.823Z,8.80
2022-12-31T20:31:19.554Z,5.47
2022-12-31T20:33:46.415Z,3.70
2022-12-31T20:36:15.621Z,6.43
2022-12-31T20:38:42.468Z,5.53
2022-12-31T20:41:12.712Z,3.23
2022-12-31T20:43:39.916Z,4.70
2022-12-31T20:46:16.161Z,4.37
2022-12-31T20:48:44.318Z,7.70
2022-12-31T20:51:11.814Z,5.87
2022-12-31T20:53:38.485Z,4.40
2022-12-31T20:56:07.462Z,6.07
2022-12-31T20:58:34.718Z,5.73
2022-12-31T21:01:04.955Z,3.97
2022-12-31T21:06:19.494Z,5.63
2022-12-31T21:08:46.797Z,4.07
2022-12-31T21:11:32.853Z,10.37
2022-12-31T21:14:00.663Z,3.33
2022-12-31T21:16:27.898Z,8.70
2022-12-31T21:18:55.250Z,11.83
2022-12-31T21:21:22.439Z,7.70
2022-12-31T21:23:49.503Z,4.50
2022-12-31T21:26:16.749Z,9.37
2022-12-31T21:28:43.539Z,9.13
2022-12-31T21:31:12.387Z,5.83
2022-12-31T21:33:39.197Z,7.27
2022-12-31T21:36:06.091Z,7.20
2022-12-31T21:38:35.430Z,10.80
2022-12-31T21:41:04.081Z,9.13
2022-12-31T21:43:31.287Z,6.90
2022-12-31T21:46:03.485Z,7.33
2022-12-31T21:48:30.541Z,7.77
2022-12-31T21:51:13.154Z,13.27
2022-12-31T21:53:40.290Z,8.50
2022-12-31T21:56:08.490Z,16.80
2022-12-31T21:58:44.148Z,7.10
2022-12-31T22:01:36.535Z,14.53
2022-12-31T22:04:03.582Z,8.40
2022-12-31T22:06:30.901Z,9.53
2022-12-31T22:08:57.961Z,8.63
2022-12-31T22:11:27.474Z,10.30
2022-12-31T22:13:55.329Z,14.03
2022-12-31T22:16:22.702Z,11.87
2022-12-31T22:18:49.910Z,9.23
2022-12-31T22:21:20.669Z,6.87
2022-12-31T22:23:53.642Z,5.33
2022-12-31T22:26:26.087Z,7.83
2022-12-31T22:28:54.522Z,4.37
2022-12-31T22:31:24.532Z,6.03
2022-12-31T22:33:51.916Z,7.50
2022-12-31T22:36:21.056Z,5.40
2022-12-31T22:38:49.427Z,5.40
2022-12-31T22:41:20.721Z,10.80
2022-12-31T22:43:58.683Z,4.57
2022-12-31T22:46:29.738Z,6.53
2022-12-31T22:49:00.529Z,6.20
2022-12-31T22:51:57.254Z,4.53
2022-12-31T22:54:15.244Z,7.57
2022-12-31T22:56:42.116Z,8.83
2022-12-31T22:59:09.418Z,9.63
2022-12-31T23:01:36.297Z,6.47
2022-12-31T23:04:03.165Z,10.23
2022-12-31T23:06:29.978Z,40.40
2022-12-31T23:09:15.039Z,46.00
2022-12-31T23:11:43.231Z,53.60
2022-12-31T23:14:34.765Z,49.37
2022-12-31T23:17:29.801Z,51.30
2022-12-31T23:20:17.883Z,61.17
2022-12-31T23:23:03.954Z,46.87
2022-12-31T23:25:55.397Z,43.73
2022-12-31T23:28:24.468Z,40.37
2022-12-31T23:30:51.952Z,35.80
2022-12-31T23:33:24.273Z,32.63
2022-12-31T23:35:51.067Z,27.47
2022-12-31T23:38:18.842Z,33.60
2022-12-31T23:40:45.629Z,39.73
2022-12-31T23:43:21.393Z,32.07
2022-12-31T23:45:50.347Z,26.87
2022-12-31T23:48:17.156Z,21.70
2022-12-31T23:50:49.177Z,18.53
2022-12-31T23:53:19.395Z,25.73
2022-12-31T23:55:46.136Z,23.13
2022-12-31T23:58:12.877Z,19.00
